N9258Z MYEH-KEYW
Flight info
| Callsign | N9258Z |
|---|---|
| Flight time | N/A |
| Altitude | 12000 |
| Route | FOWEE DCT GUCEL |
| Aircraft | C404/L-SDFR/C |
Departure
| Time | 2026-05-07 03:05 |
|---|---|
| Airport | North Eleuthera Airport (MYEH) |
Arrival
| Time | N/A |
|---|---|
| Airport | Key West International Airport (KEYW) |
| Time | Latitude | Longitude | Altitude | Speed | Heading |
|---|---|---|---|---|---|
| 2026-05-07 02:57 | 25.47586 | -76.68304 | 9 ft | 0 kts | 340° |
| 2026-05-07 03:00 | 25.47586 | -76.68303 | 9 ft | 0 kts | 340° |
| 2026-05-07 03:02 | 25.47594 | -76.68316 | 9 ft | 6 kts | 264° |
| 2026-05-07 03:02 | 25.47558 | -76.68425 | 9 ft | 18 kts | 240° |
| 2026-05-07 03:03 | 25.47526 | -76.68473 | 9 ft | 1 kts | 170° |
| 2026-05-07 03:03 | 25.47522 | -76.68456 | 9 ft | 6 kts | 121° |
| 2026-05-07 03:03 | 25.47446 | -76.68483 | 12 ft | 23 kts | 243° |
| 2026-05-07 03:03 | 25.47355 | -76.68713 | 14 ft | 41 kts | 247° |
| 2026-05-07 03:04 | 25.47278 | -76.68937 | 14 ft | 15 kts | 279° |
| 2026-05-07 03:04 | 25.47269 | -76.68962 | 16 ft | 3 kts | 126° |
| 2026-05-07 03:04 | 25.47300 | -76.68854 | 13 ft | 39 kts | 69° |
| 2026-05-07 03:04 | 25.47471 | -76.68386 | 11 ft | 90 kts | 68° |
| 2026-05-07 03:05 | 25.47748 | -76.67642 | 84 ft | 113 kts | 68° |
| 2026-05-07 03:05 | 25.48051 | -76.66858 | 369 ft | 115 kts | 68° |
| 2026-05-07 03:05 | 25.48173 | -76.66002 | 665 ft | 114 kts | 105° |
| 2026-05-07 03:05 | 25.47696 | -76.65231 | 817 ft | 135 kts | 145° |
| 2026-05-07 03:06 | 25.46790 | -76.65000 | 1180 ft | 137 kts | 191° |
| 2026-05-07 03:06 | 25.46004 | -76.65560 | 1578 ft | 139 kts | 238° |
| 2026-05-07 03:06 | 25.45738 | -76.66202 | 1879 ft | 137 kts | 249° |
| 2026-05-07 03:06 | 25.45425 | -76.67171 | 2429 ft | 126 kts | 248° |
| 2026-05-07 03:07 | 25.45053 | -76.68106 | 2594 ft | 150 kts | 246° |
| 2026-05-07 03:07 | 25.44567 | -76.69598 | 3110 ft | 151 kts | 251° |
| 2026-05-07 03:07 | 25.44228 | -76.70663 | 3596 ft | 144 kts | 250° |
| 2026-05-07 03:07 | 25.44009 | -76.71363 | 3900 ft | 141 kts | 254° |
| 2026-05-07 03:08 | 25.43815 | -76.72417 | 4347 ft | 139 kts | 259° |
| 2026-05-07 03:08 | 25.43627 | -76.73459 | 4773 ft | 138 kts | 257° |
| 2026-05-07 03:08 | 25.43433 | -76.74479 | 5183 ft | 137 kts | 257° |
| 2026-05-07 03:08 | 25.43232 | -76.75509 | 5622 ft | 137 kts | 256° |
| 2026-05-07 03:09 | 25.43037 | -76.76537 | 6064 ft | 136 kts | 256° |
| 2026-05-07 03:09 | 25.42836 | -76.77562 | 6465 ft | 136 kts | 256° |
| 2026-05-07 03:09 | 25.42636 | -76.78585 | 6834 ft | 136 kts | 256° |
| 2026-05-07 03:09 | 25.42438 | -76.79602 | 7187 ft | 135 kts | 256° |
| 2026-05-07 03:10 | 25.42240 | -76.80620 | 7538 ft | 135 kts | 257° |
| 2026-05-07 03:10 | 25.42071 | -76.81480 | 8145 ft | 134 kts | 257° |